SXS6GB EDLW-LTBJ
Flight info
| Callsign | SXS6GB |
|---|---|
| Flight time | N/A |
| Altitude | 37000 |
| Route | GMH8Q GMH Q603 TESGA DCT ESATI DCT DETEV DCT DINKU M867 XERUM DCT BAVAX DCT RADIZ DCT GORPA DCT DEVUL DCT REMSO DCT MEDUX UM867 KOGAT DCT DISOR UL608 FSK UN128 RIKSO |
| Aircraft | B38M/M-SDE1FGHILORVWXY/HB1 |
Departure
| Time | 2026-05-06 19:20 |
|---|---|
| Airport | Dortmund Airport (EDLW) |
Arrival
| Time | N/A |
|---|---|
| Airport | Adnan Menderes International Airport (LTBJ) |
| Time | Latitude | Longitude | Altitude | Speed | Heading |
|---|---|---|---|---|---|
| 2026-05-06 18:47 | 51.51581 | 7.61287 | 425 ft | 0 kts | 332° |
| 2026-05-06 18:57 | 51.51581 | 7.61288 | 437 ft | 0 kts | 332° |
| 2026-05-06 19:00 | 51.51580 | 7.61288 | 437 ft | 0 kts | 332° |
| 2026-05-06 19:11 | 51.51586 | 7.61283 | 426 ft | 2 kts | 332° |
| 2026-05-06 19:12 | 51.51603 | 7.61268 | 428 ft | 4 kts | 333° |
| 2026-05-06 19:12 | 51.51628 | 7.61232 | 436 ft | 6 kts | 288° |
| 2026-05-06 19:12 | 51.51616 | 7.61153 | 429 ft | 9 kts | 244° |
| 2026-05-06 19:12 | 51.51584 | 7.61049 | 434 ft | 12 kts | 245° |
| 2026-05-06 19:13 | 51.51543 | 7.60918 | 430 ft | 15 kts | 241° |
| 2026-05-06 19:13 | 51.51500 | 7.60793 | 419 ft | 15 kts | 241° |
| 2026-05-06 19:13 | 51.51450 | 7.60651 | 422 ft | 10 kts | 240° |
| 2026-05-06 19:13 | 51.51431 | 7.60598 | 416 ft | 0 kts | 240° |
| 2026-05-06 19:18 | 51.51430 | 7.60596 | 416 ft | 0 kts | 240° |
| 2026-05-06 19:18 | 51.51411 | 7.60542 | 425 ft | 10 kts | 242° |
| 2026-05-06 19:18 | 51.51369 | 7.60416 | 420 ft | 15 kts | 243° |
| 2026-05-06 19:19 | 51.51398 | 7.60266 | 417 ft | 18 kts | 325° |
| 2026-05-06 19:19 | 51.51469 | 7.60214 | 411 ft | 7 kts | 9° |
| 2026-05-06 19:19 | 51.51499 | 7.60272 | 410 ft | 6 kts | 60° |
| 2026-05-06 19:19 | 51.51518 | 7.60327 | 412 ft | 4 kts | 60° |
| 2026-05-06 19:20 | 51.51591 | 7.60533 | 413 ft | 56 kts | 60° |
| 2026-05-06 19:20 | 51.51917 | 7.61459 | 419 ft | 132 kts | 60° |
| 2026-05-06 19:20 | 51.52439 | 7.62986 | 699 ft | 167 kts | 63° |
| 2026-05-06 19:20 | 51.52959 | 7.64737 | 1556 ft | 174 kts | 61° |
| 2026-05-06 19:21 | 51.53558 | 7.66459 | 2386 ft | 182 kts | 57° |
| 2026-05-06 19:21 | 51.54245 | 7.68302 | 2869 ft | 205 kts | 57° |
| 2026-05-06 19:21 | 51.55023 | 7.70413 | 3330 ft | 233 kts | 58° |
| 2026-05-06 19:21 | 51.55832 | 7.72671 | 4295 ft | 237 kts | 61° |
| 2026-05-06 19:22 | 51.56281 | 7.75208 | 4416 ft | 239 kts | 86° |
| 2026-05-06 19:22 | 51.55938 | 7.77811 | 4517 ft | 243 kts | 114° |
| 2026-05-06 19:22 | 51.55307 | 7.79310 | 4638 ft | 247 kts | 131° |
| 2026-05-06 19:22 | 51.53875 | 7.80821 | 4760 ft | 251 kts | 162° |
| 2026-05-06 19:23 | 51.52152 | 7.80769 | 5078 ft | 251 kts | 205° |
| 2026-05-06 19:23 | 51.50634 | 7.79377 | 5998 ft | 253 kts | 208° |
| 2026-05-06 19:23 | 51.48467 | 7.77789 | 7089 ft | 268 kts | 204° |
| 2026-05-06 19:23 | 51.46697 | 7.76624 | 7782 ft | 281 kts | 202° |
| 2026-05-06 19:24 | 51.44862 | 7.75488 | 8728 ft | 285 kts | 200° |
| 2026-05-06 19:24 | 51.43539 | 7.75065 | 9327 ft | 289 kts | 181° |
| 2026-05-06 19:24 | 51.41549 | 7.75574 | 10176 ft | 296 kts | 162° |
| 2026-05-06 19:24 | 51.39536 | 7.76655 | 10647 ft | 315 kts | 161° |
| 2026-05-06 19:25 | 51.37387 | 7.77828 | 10766 ft | 337 kts | 161° |
| 2026-05-06 19:25 | 51.35123 | 7.79083 | 10788 ft | 351 kts | 161° |
| 2026-05-06 19:25 | 51.32800 | 7.80381 | 10818 ft | 357 kts | 161° |
| 2026-05-06 19:25 | 51.30447 | 7.81700 | 10846 ft | 359 kts | 161° |
| 2026-05-06 19:26 | 51.28098 | 7.83019 | 10866 ft | 359 kts | 161° |
| 2026-05-06 19:26 | 51.25748 | 7.84337 | 10861 ft | 358 kts | 161° |
| 2026-05-06 19:26 | 51.23395 | 7.85656 | 10863 ft | 358 kts | 161° |
| 2026-05-06 19:26 | 51.21042 | 7.86973 | 10861 ft | 359 kts | 161° |
| 2026-05-06 19:27 | 51.18679 | 7.88294 | 11311 ft | 360 kts | 161° |
| 2026-05-06 19:27 | 51.16379 | 7.89880 | 12170 ft | 363 kts | 149° |
| 2026-05-06 19:27 | 51.14248 | 7.92069 | 12922 ft | 366 kts | 148° |
| 2026-05-06 19:27 | 51.12088 | 7.94269 | 13636 ft | 372 kts | 148° |
| 2026-05-06 19:28 | 51.09900 | 7.96498 | 13819 ft | 373 kts | 148° |
| 2026-05-06 19:28 | 51.07711 | 7.98724 | 13853 ft | 373 kts | 148° |
| 2026-05-06 19:28 | 51.05559 | 8.00912 | 13850 ft | 372 kts | 149° |
| 2026-05-06 19:28 | 51.03380 | 8.03123 | 13845 ft | 372 kts | 149° |
| 2026-05-06 19:29 | 51.01196 | 8.05336 | 13899 ft | 373 kts | 149° |
| 2026-05-06 19:29 | 50.99016 | 8.07540 | 14645 ft | 371 kts | 150° |
| 2026-05-06 19:29 | 50.96823 | 8.09755 | 15274 ft | 376 kts | 150° |
| 2026-05-06 19:29 | 50.94607 | 8.11991 | 15898 ft | 379 kts | 150° |
| 2026-05-06 19:30 | 50.92371 | 8.14244 | 16519 ft | 383 kts | 150° |
| 2026-05-06 19:30 | 50.90128 | 8.16557 | 17120 ft | 388 kts | 146° |
| 2026-05-06 19:30 | 50.88022 | 8.19271 | 17732 ft | 392 kts | 143° |
| 2026-05-06 19:30 | 50.85904 | 8.21975 | 18276 ft | 395 kts | 144° |
| 2026-05-06 19:31 | 50.83741 | 8.24699 | 18791 ft | 398 kts | 144° |
| 2026-05-06 19:31 | 50.81561 | 8.27422 | 19315 ft | 400 kts | 144° |
| 2026-05-06 19:31 | 50.77155 | 8.32897 | 20330 ft | 406 kts | 144° |
| 2026-05-06 19:32 | 50.74929 | 8.35654 | 20827 ft | 408 kts | 144° |
| 2026-05-06 19:32 | 50.72683 | 8.38431 | 21322 ft | 411 kts | 144° |
| 2026-05-06 19:32 | 50.70424 | 8.41222 | 21809 ft | 414 kts | 144° |
| 2026-05-06 19:32 | 50.68152 | 8.44026 | 22292 ft | 416 kts | 144° |
| 2026-05-06 19:33 | 50.65867 | 8.46841 | 22806 ft | 418 kts | 144° |
| 2026-05-06 19:33 | 50.63566 | 8.49673 | 23273 ft | 421 kts | 144° |
| 2026-05-06 19:33 | 50.61244 | 8.52526 | 23677 ft | 424 kts | 144° |
| 2026-05-06 19:33 | 50.58915 | 8.55385 | 24140 ft | 426 kts | 144° |
| 2026-05-06 19:34 | 50.56574 | 8.58255 | 24576 ft | 427 kts | 144° |
| 2026-05-06 19:34 | 50.54223 | 8.61135 | 25018 ft | 428 kts | 144° |
| 2026-05-06 19:34 | 50.51873 | 8.64008 | 25462 ft | 430 kts | 144° |
| 2026-05-06 19:34 | 50.49504 | 8.66901 | 25903 ft | 431 kts | 144° |
| 2026-05-06 19:35 | 50.47141 | 8.69782 | 26316 ft | 433 kts | 144° |
| 2026-05-06 19:35 | 50.44761 | 8.72681 | 26733 ft | 435 kts | 144° |
| 2026-05-06 19:35 | 50.42363 | 8.75598 | 27138 ft | 436 kts | 144° |
| 2026-05-06 19:35 | 50.39959 | 8.78518 | 27544 ft | 438 kts | 144° |
| 2026-05-06 19:36 | 50.37548 | 8.81443 | 27926 ft | 440 kts | 144° |
| 2026-05-06 19:36 | 50.35127 | 8.84376 | 28318 ft | 441 kts | 144° |
| 2026-05-06 19:36 | 50.32690 | 8.87324 | 28702 ft | 443 kts | 144° |
| 2026-05-06 19:36 | 50.30247 | 8.90277 | 29057 ft | 444 kts | 143° |
| 2026-05-06 19:37 | 50.27802 | 8.93227 | 29489 ft | 444 kts | 143° |
| 2026-05-06 19:37 | 50.25352 | 8.96180 | 29856 ft | 446 kts | 143° |
| 2026-05-06 19:37 | 50.22897 | 8.99133 | 30214 ft | 446 kts | 144° |
| 2026-05-06 19:37 | 50.20441 | 9.02085 | 30596 ft | 445 kts | 144° |
| 2026-05-06 19:38 | 50.17981 | 9.05038 | 30960 ft | 445 kts | 144° |
| 2026-05-06 19:38 | 50.15530 | 9.07976 | 31319 ft | 444 kts | 144° |
| 2026-05-06 19:38 | 50.13079 | 9.10910 | 31681 ft | 444 kts | 144° |
| 2026-05-06 19:38 | 50.10629 | 9.13839 | 32043 ft | 444 kts | 145° |
| 2026-05-06 19:39 | 50.08185 | 9.16757 | 32402 ft | 443 kts | 146° |
| 2026-05-06 19:39 | 50.05796 | 9.19787 | 32717 ft | 444 kts | 140° |
| 2026-05-06 19:39 | 50.03565 | 9.23073 | 32832 ft | 440 kts | 140° |
| 2026-05-06 19:39 | 50.01342 | 9.26343 | 33064 ft | 439 kts | 140° |
| 2026-05-06 19:40 | 49.99129 | 9.29601 | 33462 ft | 438 kts | 140° |
| 2026-05-06 19:40 | 49.96917 | 9.32859 | 33795 ft | 438 kts | 140° |
| 2026-05-06 19:40 | 49.94710 | 9.36106 | 34086 ft | 437 kts | 140° |
| 2026-05-06 19:40 | 49.92499 | 9.39355 | 34323 ft | 439 kts | 140° |
| 2026-05-06 19:41 | 49.90277 | 9.42616 | 34544 ft | 440 kts | 140° |
| 2026-05-06 19:41 | 49.88053 | 9.45874 | 34784 ft | 440 kts | 140° |
| 2026-05-06 19:41 | 49.85822 | 9.49139 | 35005 ft | 441 kts | 140° |
| 2026-05-06 19:41 | 49.83589 | 9.52403 | 35236 ft | 442 kts | 140° |
| 2026-05-06 19:42 | 49.81344 | 9.55674 | 35438 ft | 443 kts | 141° |
| 2026-05-06 19:42 | 49.79097 | 9.58943 | 35665 ft | 444 kts | 140° |
| 2026-05-06 19:42 | 49.76842 | 9.62218 | 35871 ft | 445 kts | 140° |
| 2026-05-06 19:42 | 49.74585 | 9.65493 | 36080 ft | 446 kts | 140° |
| 2026-05-06 19:43 | 49.72322 | 9.68772 | 36297 ft | 447 kts | 140° |
| 2026-05-06 19:43 | 49.70047 | 9.72063 | 36515 ft | 447 kts | 140° |
| 2026-05-06 19:43 | 49.67771 | 9.75352 | 36703 ft | 448 kts | 140° |
| 2026-05-06 19:43 | 49.65522 | 9.78598 | 36818 ft | 450 kts | 140° |
| 2026-05-06 19:44 | 49.60922 | 9.85223 | 36817 ft | 448 kts | 140° |
| 2026-05-06 19:44 | 49.56392 | 9.91735 | 36802 ft | 449 kts | 140° |